sensor_id;sensor_type;location;lat;lon;timestamp;pressure;altitude;pressure_sealevel;temperature;humidity
20987;BME280;10652;50.306;8.570;2023-04-20T00:02:30;98146.22;;;2.86;67.74
20987;BME280;10652;50.306;8.570;2023-04-20T00:06:33;98152.28;;;2.83;67.73
20987;BME280;10652;50.306;8.570;2023-04-20T00:10:35;98138.72;;;2.65;68.14
20987;BME280;10652;50.306;8.570;2023-04-20T00:14:37;98133.72;;;2.51;68.92
20987;BME280;10652;50.306;8.570;2023-04-20T00:18:39;98121.88;;;2.32;69.61
20987;BME280;10652;50.306;8.570;2023-04-20T00:22:41;98113.41;;;2.19;70.31
20987;BME280;10652;50.306;8.570;2023-04-20T00:26:43;98102.19;;;2.20;70.68
20987;BME280;10652;50.306;8.570;2023-04-20T00:30:46;98097.69;;;2.33;71.48
20987;BME280;10652;50.306;8.570;2023-04-20T00:34:48;98086.19;;;2.52;71.49
20987;BME280;10652;50.306;8.570;2023-04-20T00:38:50;98085.25;;;2.56;70.61
20987;BME280;10652;50.306;8.570;2023-04-20T00:42:52;98086.97;;;2.57;70.72
20987;BME280;10652;50.306;8.570;2023-04-20T00:46:57;98086.84;;;2.65;71.44
20987;BME280;10652;50.306;8.570;2023-04-20T00:51:00;98078.22;;;2.64;71.47
20987;BME280;10652;50.306;8.570;2023-04-20T00:55:04;98077.28;;;2.70;71.83
20987;BME280;10652;50.306;8.570;2023-04-20T00:59:07;98075.53;;;2.72;70.64
20987;BME280;10652;50.306;8.570;2023-04-20T01:03:10;98066.91;;;2.68;69.99
20987;BME280;10652;50.306;8.570;2023-04-20T01:07:13;98061.72;;;2.68;69.95
20987;BME280;10652;50.306;8.570;2023-04-20T01:11:15;98046.94;;;2.75;70.33
20987;BME280;10652;50.306;8.570;2023-04-20T01:15:17;98035.72;;;2.73;69.51
20987;BME280;10652;50.306;8.570;2023-04-20T01:19:20;98041.09;;;2.61;69.03
20987;BME280;10652;50.306;8.570;2023-04-20T01:23:22;98039.63;;;2.44;70.21
20987;BME280;10652;50.306;8.570;2023-04-20T01:27:24;98029.22;;;2.46;70.25
20987;BME280;10652;50.306;8.570;2023-04-20T01:31:27;98030.94;;;2.48;71.04
20987;BME280;10652;50.306;8.570;2023-04-20T01:35:29;98017.63;;;2.68;71.64
20987;BME280;10652;50.306;8.570;2023-04-20T01:39:31;98026.09;;;2.79;70.96
20987;BME280;10652;50.306;8.570;2023-04-20T01:43:34;98016.56;;;2.81;71.38
20987;BME280;10652;50.306;8.570;2023-04-20T01:47:37;98016.53;;;2.83;71.57
20987;BME280;10652;50.306;8.570;2023-04-20T01:51:41;98008.75;;;2.83;71.62
20987;BME280;10652;50.306;8.570;2023-04-20T01:55:43;98012.97;;;2.90;71.71
20987;BME280;10652;50.306;8.570;2023-04-20T01:59:45;98010.41;;;2.87;69.98
20987;BME280;10652;50.306;8.570;2023-04-20T02:03:47;98007.88;;;2.84;71.57
20987;BME280;10652;50.306;8.570;2023-04-20T02:07:50;98003.56;;;2.83;73.06
20987;BME280;10652;50.306;8.570;2023-04-20T02:11:52;98006.16;;;2.83;75.28
20987;BME280;10652;50.306;8.570;2023-04-20T02:15:54;98001.81;;;2.83;79.24
20987;BME280;10652;50.306;8.570;2023-04-20T02:19:57;97997.56;;;2.81;81.53
20987;BME280;10652;50.306;8.570;2023-04-20T02:24:00;97992.38;;;2.81;85.72
20987;BME280;10652;50.306;8.570;2023-04-20T02:28:02;97991.50;;;2.80;88.45
20987;BME280;10652;50.306;8.570;2023-04-20T02:32:05;97990.59;;;2.83;89.24
20987;BME280;10652;50.306;8.570;2023-04-20T02:36:08;97989.00;;;2.76;92.54
20987;BME280;10652;50.306;8.570;2023-04-20T02:40:11;97974.38;;;2.72;94.25
20987;BME280;10652;50.306;8.570;2023-04-20T02:44:13;97986.56;;;2.65;96.29
20987;BME280;10652;50.306;8.570;2023-04-20T02:48:16;97986.78;;;2.52;99.78
20987;BME280;10652;50.306;8.570;2023-04-20T02:52:18;97979.22;;;2.39;100.00
20987;BME280;10652;50.306;8.570;2023-04-20T02:56:21;97977.59;;;2.32;100.00
20987;BME280;10652;50.306;8.570;2023-04-20T03:00:27;97977.59;;;2.32;100.00
20987;BME280;10652;50.306;8.570;2023-04-20T03:04:36;97962.03;;;2.32;100.00
20987;BME280;10652;50.306;8.570;2023-04-20T03:08:46;97962.13;;;2.28;100.00
20987;BME280;10652;50.306;8.570;2023-04-20T03:13:22;97960.44;;;2.24;100.00
20987;BME280;10652;50.306;8.570;2023-04-20T03:17:28;97957.06;;;2.20;100.00
20987;BME280;10652;50.306;8.570;2023-04-20T03:21:30;97955.34;;;2.19;100.00
20987;BME280;10652;50.306;8.570;2023-04-20T03:25:33;97955.31;;;2.22;100.00
20987;BME280;10652;50.306;8.570;2023-04-20T03:29:43;97953.53;;;2.24;100.00
20987;BME280;10652;50.306;8.570;2023-04-20T03:33:45;97957.84;;;2.24;100.00
20987;BME280;10652;50.306;8.570;2023-04-20T03:37:47;97950.06;;;2.25;100.00
20987;BME280;10652;50.306;8.570;2023-04-20T03:41:49;97957.75;;;2.31;100.00
20987;BME280;10652;50.306;8.570;2023-04-20T03:45:52;97945.59;;;2.35;100.00
20987;BME280;10652;50.306;8.570;2023-04-20T03:49:54;97941.28;;;2.35;100.00
20987;BME280;10652;50.306;8.570;2023-04-20T03:53:56;97929.25;;;2.31;100.00
20987;BME280;10652;50.306;8.570;2023-04-20T03:57:58;97939.66;;;2.28;100.00
20987;BME280;10652;50.306;8.570;2023-04-20T04:02:07;97932.00;;;2.21;100.00
20987;BME280;10652;50.306;8.570;2023-04-20T04:06:11;97931.88;;;2.28;100.00
20987;BME280;10652;50.306;8.570;2023-04-20T04:10:15;97934.44;;;2.31;100.00
20987;BME280;10652;50.306;8.570;2023-04-20T04:14:19;97932.81;;;2.24;100.00
20987;BME280;10652;50.306;8.570;2023-04-20T04:18:22;97938.72;;;2.32;100.00
20987;BME280;10652;50.306;8.570;2023-04-20T04:22:25;97940.56;;;2.26;100.00
20987;BME280;10652;50.306;8.570;2023-04-20T04:26:48;97940.72;;;2.15;100.00
20987;BME280;10652;50.306;8.570;2023-04-20T04:30:52;97929.75;;;1.99;100.00
20987;BME280;10652;50.306;8.570;2023-04-20T04:34:55;97938.47;;;1.94;100.00
20987;BME280;10652;50.306;8.570;2023-04-20T04:39:00;97929.91;;;1.89;100.00
20987;BME280;10652;50.306;8.570;2023-04-20T04:43:02;97931.63;;;1.90;100.00
20987;BME280;10652;50.306;8.570;2023-04-20T04:47:05;97929.84;;;1.92;100.00
20987;BME280;10652;50.306;8.570;2023-04-20T04:51:08;97925.56;;;1.89;100.00
20987;BME280;10652;50.306;8.570;2023-04-20T04:55:10;97922.94;;;1.91;100.00
20987;BME280;10652;50.306;8.570;2023-04-20T04:59:12;97924.72;;;1.90;100.00
20987;BME280;10652;50.306;8.570;2023-04-20T05:03:14;97920.28;;;1.97;100.00
20987;BME280;10652;50.306;8.570;2023-04-20T05:07:17;97917.63;;;2.00;100.00
20987;BME280;10652;50.306;8.570;2023-04-20T05:11:19;97928.03;;;1.97;100.00
20987;BME280;10652;50.306;8.570;2023-04-20T05:15:21;97924.50;;;2.04;100.00
20987;BME280;10652;50.306;8.570;2023-04-20T05:19:23;97935.63;;;2.09;100.00
20987;BME280;10652;50.306;8.570;2023-04-20T05:23:25;97920.78;;;2.19;100.00
20987;BME280;10652;50.306;8.570;2023-04-20T05:27:27;97925.03;;;2.23;100.00
20987;BME280;10652;50.306;8.570;2023-04-20T05:31:29;97922.38;;;2.27;100.00
20987;BME280;10652;50.306;8.570;2023-04-20T05:35:34;97922.44;;;2.26;100.00
20987;BME280;10652;50.306;8.570;2023-04-20T05:39:36;97922.44;;;2.24;100.00
20987;BME280;10652;50.306;8.570;2023-04-20T05:43:38;97924.97;;;2.29;100.00
20987;BME280;10652;50.306;8.570;2023-04-20T05:47:40;97920.63;;;2.29;100.00
20987;BME280;10652;50.306;8.570;2023-04-20T05:51:43;97921.50;;;2.30;100.00
20987;BME280;10652;50.306;8.570;2023-04-20T05:55:45;97932.78;;;2.26;100.00
20987;BME280;10652;50.306;8.570;2023-04-20T05:59:47;97925.75;;;2.32;100.00
20987;BME280;10652;50.306;8.570;2023-04-20T06:03:49;97930.00;;;2.38;100.00
20987;BME280;10652;50.306;8.570;2023-04-20T06:07:51;97925.66;;;2.38;100.00
20987;BME280;10652;50.306;8.570;2023-04-20T06:11:53;97924.75;;;2.41;100.00
20987;BME280;10652;50.306;8.570;2023-04-20T06:15:55;97928.19;;;2.43;100.00
20987;BME280;10652;50.306;8.570;2023-04-20T06:19:57;97921.34;;;2.39;100.00
20987;BME280;10652;50.306;8.570;2023-04-20T06:23:59;97918.59;;;2.46;100.00
20987;BME280;10652;50.306;8.570;2023-04-20T06:28:04;97930.59;;;2.54;100.00
20987;BME280;10652;50.306;8.570;2023-04-20T06:32:07;97924.56;;;2.52;100.00
20987;BME280;10652;50.306;8.570;2023-04-20T06:36:09;97920.22;;;2.54;100.00
20987;BME280;10652;50.306;8.570;2023-04-20T06:40:11;97928.81;;;2.56;100.00
20987;BME280;10652;50.306;8.570;2023-04-20T06:44:16;97931.34;;;2.60;100.00
20987;BME280;10652;50.306;8.570;2023-04-20T06:48:18;97935.50;;;2.70;100.00
20987;BME280;10652;50.306;8.570;2023-04-20T06:52:36;97937.97;;;2.76;100.00
20987;BME280;10652;50.306;8.570;2023-04-20T06:56:38;97932.72;;;2.81;100.00
20987;BME280;10652;50.306;8.570;2023-04-20T07:00:40;97944.59;;;2.91;100.00
20987;BME280;10652;50.306;8.570;2023-04-20T07:04:42;97930.56;;;3.04;100.00
20987;BME280;10652;50.306;8.570;2023-04-20T07:08:44;97936.44;;;3.12;100.00
20987;BME280;10652;50.306;8.570;2023-04-20T07:12:46;97936.47;;;3.09;100.00
20987;BME280;10652;50.306;8.570;2023-04-20T07:16:52;97927.78;;;3.13;100.00
20987;BME280;10652;50.306;8.570;2023-04-20T07:20:55;97926.84;;;3.16;100.00
20987;BME280;10652;50.306;8.570;2023-04-20T07:24:57;97924.00;;;3.28;100.00
20987;BME280;10652;50.306;8.570;2023-04-20T07:28:59;97922.94;;;3.38;100.00
20987;BME280;10652;50.306;8.570;2023-04-20T07:33:01;97916.97;;;3.34;100.00
20987;BME280;10652;50.306;8.570;2023-04-20T07:37:03;97920.31;;;3.40;100.00
20987;BME280;10652;50.306;8.570;2023-04-20T07:41:08;97918.41;;;3.48;100.00
20987;BME280;10652;50.306;8.570;2023-04-20T07:45:12;97919.97;;;3.55;100.00
20987;BME280;10652;50.306;8.570;2023-04-20T07:49:14;97922.38;;;3.64;100.00
20987;BME280;10652;50.306;8.570;2023-04-20T07:53:17;97936.41;;;3.57;100.00
20987;BME280;10652;50.306;8.570;2023-04-20T07:57:19;97938.88;;;3.63;100.00
20987;BME280;10652;50.306;8.570;2023-04-20T08:01:23;97937.56;;;3.82;100.00
20987;BME280;10652;50.306;8.570;2023-04-20T08:05:26;97936.75;;;3.80;100.00
20987;BME280;10652;50.306;8.570;2023-04-20T08:09:28;97935.88;;;3.81;100.00
20987;BME280;10652;50.306;8.570;2023-04-20T08:13:30;97927.63;;;4.02;100.00
20987;BME280;10652;50.306;8.570;2023-04-20T08:17:33;97941.50;;;4.01;100.00
20987;BME280;10652;50.306;8.570;2023-04-20T08:21:36;97935.50;;;3.99;100.00
20987;BME280;10652;50.306;8.570;2023-04-20T08:25:38;97929.25;;;4.06;100.00
20987;BME280;10652;50.306;8.570;2023-04-20T08:29:41;97927.22;;;4.20;100.00
20987;BME280;10652;50.306;8.570;2023-04-20T08:33:43;97937.94;;;4.42;100.00
20987;BME280;10652;50.306;8.570;2023-04-20T08:37:46;97931.03;;;4.75;100.00
20987;BME280;10652;50.306;8.570;2023-04-20T08:41:49;97934.34;;;5.14;100.00
20987;BME280;10652;50.306;8.570;2023-04-20T08:45:57;97932.44;;;5.50;100.00
20987;BME280;10652;50.306;8.570;2023-04-20T08:50:02;97923.66;;;5.83;97.21
20987;BME280;10652;50.306;8.570;2023-04-20T08:54:05;97919.47;;;6.35;96.86
20987;BME280;10652;50.306;8.570;2023-04-20T08:58:07;97921.25;;;6.85;92.00
20987;BME280;10652;50.306;8.570;2023-04-20T09:02:10;97922.94;;;6.86;87.39
20987;BME280;10652;50.306;8.570;2023-04-20T09:06:15;97928.88;;;6.65;84.76
20987;BME280;10652;50.306;8.570;2023-04-20T09:10:18;97922.38;;;6.52;84.70
20987;BME280;10652;50.306;8.570;2023-04-20T09:14:20;97920.84;;;6.45;85.55
20987;BME280;10652;50.306;8.570;2023-04-20T09:18:22;97921.25;;;6.59;86.74
20987;BME280;10652;50.306;8.570;2023-04-20T09:22:35;97913.41;;;6.85;86.39
20987;BME280;10652;50.306;8.570;2023-04-20T09:26:37;97912.34;;;6.91;83.47
20987;BME280;10652;50.306;8.570;2023-04-20T09:30:41;97911.06;;;6.78;85.19
20987;BME280;10652;50.306;8.570;2023-04-20T09:34:44;97910.34;;;6.73;86.04
20987;BME280;10652;50.306;8.570;2023-04-20T09:38:46;97900.53;;;6.55;86.12
20987;BME280;10652;50.306;8.570;2023-04-20T09:42:48;97902.34;;;6.53;86.97
20987;BME280;10652;50.306;8.570;2023-04-20T09:46:51;97898.94;;;6.51;87.65
20987;BME280;10652;50.306;8.570;2023-04-20T09:50:54;97892.78;;;6.78;88.32
20987;BME280;10652;50.306;8.570;2023-04-20T09:54:56;97887.66;;;7.00;87.52
20987;BME280;10652;50.306;8.570;2023-04-20T09:58:59;97885.84;;;7.02;83.49
20987;BME280;10652;50.306;8.570;2023-04-20T10:03:02;97878.91;;;7.01;84.03
20987;BME280;10652;50.306;8.570;2023-04-20T10:07:04;97877.44;;;6.93;80.95
20987;BME280;10652;50.306;8.570;2023-04-20T10:11:08;97874.34;;;7.07;80.37
20987;BME280;10652;50.306;8.570;2023-04-20T10:15:10;97866.09;;;6.95;82.14
20987;BME280;10652;50.306;8.570;2023-04-20T10:19:13;97859.53;;;7.08;81.66
20987;BME280;10652;50.306;8.570;2023-04-20T10:23:15;97853.66;;;7.01;80.23
20987;BME280;10652;50.306;8.570;2023-04-20T10:27:20;97862.84;;;7.13;82.74
20987;BME280;10652;50.306;8.570;2023-04-20T10:31:34;97854.53;;;7.02;77.61
20987;BME280;10652;50.306;8.570;2023-04-20T10:35:53;97845.84;;;7.24;77.54
20987;BME280;10652;50.306;8.570;2023-04-20T10:39:56;97841.19;;;7.77;80.56
20987;BME280;10652;50.306;8.570;2023-04-20T10:44:08;97841.81;;;8.06;73.37
20987;BME280;10652;50.306;8.570;2023-04-20T10:48:11;97836.94;;;7.97;67.67
20987;BME280;10652;50.306;8.570;2023-04-20T10:52:16;97821.25;;;7.97;68.45
20987;BME280;10652;50.306;8.570;2023-04-20T10:56:18;97818.16;;;8.31;67.33
20987;BME280;10652;50.306;8.570;2023-04-20T11:00:26;97825.81;;;8.55;69.47
20987;BME280;10652;50.306;8.570;2023-04-20T11:04:29;97822.28;;;8.56;69.40
20987;BME280;10652;50.306;8.570;2023-04-20T11:08:36;97824.44;;;8.27;66.62
20987;BME280;10652;50.306;8.570;2023-04-20T11:12:38;97816.00;;;7.97;69.13
20987;BME280;10652;50.306;8.570;2023-04-20T11:16:50;97808.78;;;7.81;67.80
20987;BME280;10652;50.306;8.570;2023-04-20T11:20:53;97816.88;;;7.75;67.26
20987;BME280;10652;50.306;8.570;2023-04-20T11:25:09;97804.50;;;8.01;66.78
20987;BME280;10652;50.306;8.570;2023-04-20T11:29:12;97803.09;;;8.14;69.16
20987;BME280;10652;50.306;8.570;2023-04-20T11:33:23;97817.97;;;7.70;73.89
20987;BME280;10652;50.306;8.570;2023-04-20T11:37:27;97822.13;;;6.07;93.74
20987;BME280;10652;50.306;8.570;2023-04-20T11:41:30;97808.63;;;5.38;100.00
20987;BME280;10652;50.306;8.570;2023-04-20T11:45:32;97804.72;;;5.53;100.00
20987;BME280;10652;50.306;8.570;2023-04-20T11:49:37;97802.19;;;5.78;100.00
20987;BME280;10652;50.306;8.570;2023-04-20T11:53:39;97793.72;;;5.71;100.00
20987;BME280;10652;50.306;8.570;2023-04-20T11:57:42;97791.41;;;5.62;100.00
20987;BME280;10652;50.306;8.570;2023-04-20T12:01:44;97790.22;;;5.72;100.00
20987;BME280;10652;50.306;8.570;2023-04-20T12:05:47;97784.78;;;6.04;100.00
20987;BME280;10652;50.306;8.570;2023-04-20T12:09:50;97774.66;;;6.48;100.00
20987;BME280;10652;50.306;8.570;2023-04-20T12:13:52;97783.22;;;6.76;100.00
20987;BME280;10652;50.306;8.570;2023-04-20T12:17:55;97778.72;;;6.80;100.00
20987;BME280;10652;50.306;8.570;2023-04-20T12:21:57;97769.25;;;7.01;100.00
20987;BME280;10652;50.306;8.570;2023-04-20T12:25:59;97773.22;;;7.11;82.32
20987;BME280;10652;50.306;8.570;2023-04-20T12:30:01;97758.09;;;7.19;77.85
20987;BME280;10652;50.306;8.570;2023-04-20T12:34:04;97756.84;;;7.29;74.63
20987;BME280;10652;50.306;8.570;2023-04-20T12:38:07;97764.59;;;7.54;73.27
20987;BME280;10652;50.306;8.570;2023-04-20T12:42:09;97759.56;;;7.91;68.64
20987;BME280;10652;50.306;8.570;2023-04-20T12:46:11;97752.84;;;8.27;72.52
20987;BME280;10652;50.306;8.570;2023-04-20T12:50:13;97739.88;;;8.45;69.30
20987;BME280;10652;50.306;8.570;2023-04-20T12:54:15;97732.88;;;8.45;62.77
20987;BME280;10652;50.306;8.570;2023-04-20T12:58:18;97737.69;;;8.75;63.64
20987;BME280;10652;50.306;8.570;2023-04-20T13:02:21;97732.19;;;9.18;61.78
20987;BME280;10652;50.306;8.570;2023-04-20T13:06:23;97733.44;;;9.47;65.33
20987;BME280;10652;50.306;8.570;2023-04-20T13:10:25;97727.25;;;9.31;62.46
20987;BME280;10652;50.306;8.570;2023-04-20T13:14:27;97720.16;;;9.14;63.96
20987;BME280;10652;50.306;8.570;2023-04-20T13:18:29;97731.03;;;9.05;58.56
20987;BME280;10652;50.306;8.570;2023-04-20T13:22:31;97741.84;;;8.99;58.27
20987;BME280;10652;50.306;8.570;2023-04-20T13:26:35;97736.28;;;9.05;59.97
20987;BME280;10652;50.306;8.570;2023-04-20T13:30:37;97731.25;;;9.19;59.66
20987;BME280;10652;50.306;8.570;2023-04-20T13:34:40;97763.78;;;9.15;59.09
20987;BME280;10652;50.306;8.570;2023-04-20T13:38:42;97781.56;;;8.69;64.41
20987;BME280;10652;50.306;8.570;2023-04-20T13:42:44;97773.69;;;8.49;70.75
20987;BME280;10652;50.306;8.570;2023-04-20T13:46:46;97764.75;;;8.35;68.82
20987;BME280;10652;50.306;8.570;2023-04-20T13:50:49;97770.84;;;8.35;70.00
20987;BME280;10652;50.306;8.570;2023-04-20T13:54:52;97760.25;;;8.38;67.94
20987;BME280;10652;50.306;8.570;2023-04-20T13:58:54;97749.50;;;8.44;67.57
20987;BME280;10652;50.306;8.570;2023-04-20T14:02:56;97742.63;;;8.62;68.45
20987;BME280;10652;50.306;8.570;2023-04-20T14:06:58;97736.53;;;8.61;62.85
20987;BME280;10652;50.306;8.570;2023-04-20T14:11:00;97745.97;;;8.45;61.16
20987;BME280;10652;50.306;8.570;2023-04-20T14:15:03;97762.66;;;8.43;62.74
20987;BME280;10652;50.306;8.570;2023-04-20T14:19:05;97760.31;;;8.16;60.24
20987;BME280;10652;50.306;8.570;2023-04-20T14:23:07;97774.53;;;7.88;67.04
20987;BME280;10652;50.306;8.570;2023-04-20T14:27:10;97774.78;;;6.68;85.32
20987;BME280;10652;50.306;8.570;2023-04-20T14:31:12;97754.59;;;5.99;94.65
20987;BME280;10652;50.306;8.570;2023-04-20T14:35:15;97752.13;;;5.94;100.00
20987;BME280;10652;50.306;8.570;2023-04-20T14:39:18;97749.84;;;6.10;100.00
20987;BME280;10652;50.306;8.570;2023-04-20T14:43:21;97749.63;;;6.42;100.00
20987;BME280;10652;50.306;8.570;2023-04-20T14:47:23;97746.72;;;6.75;95.51
20987;BME280;10652;50.306;8.570;2023-04-20T14:51:25;97750.88;;;6.80;92.19
20987;BME280;10652;50.306;8.570;2023-04-20T14:55:28;97745.53;;;6.83;89.82
20987;BME280;10652;50.306;8.570;2023-04-20T14:59:31;97753.06;;;6.91;88.96
20987;BME280;10652;50.306;8.570;2023-04-20T15:03:34;97748.59;;;6.95;88.44
20987;BME280;10652;50.306;8.570;2023-04-20T15:07:37;97747.09;;;6.87;89.09
20987;BME280;10652;50.306;8.570;2023-04-20T15:11:39;97749.50;;;6.70;90.67
20987;BME280;10652;50.306;8.570;2023-04-20T15:15:41;97749.50;;;6.70;89.66
20987;BME280;10652;50.306;8.570;2023-04-20T15:19:48;97745.03;;;6.72;89.85
20987;BME280;10652;50.306;8.570;2023-04-20T15:23:50;97745.16;;;6.69;89.88
20987;BME280;10652;50.306;8.570;2023-04-20T15:27:52;97741.34;;;6.55;90.91
20987;BME280;10652;50.306;8.570;2023-04-20T15:31:54;97746.72;;;6.50;92.77
20987;BME280;10652;50.306;8.570;2023-04-20T15:35:56;97745.78;;;6.53;94.14
20987;BME280;10652;50.306;8.570;2023-04-20T15:39:58;97738.91;;;6.50;92.68
20987;BME280;10652;50.306;8.570;2023-04-20T15:44:01;97749.28;;;6.52;93.49
20987;BME280;10652;50.306;8.570;2023-04-20T15:48:03;97741.19;;;6.59;94.14
20987;BME280;10652;50.306;8.570;2023-04-20T15:52:06;97742.31;;;6.52;94.69
20987;BME280;10652;50.306;8.570;2023-04-20T15:56:11;97747.69;;;6.47;93.51
20987;BME280;10652;50.306;8.570;2023-04-20T16:00:14;97757.72;;;6.35;92.15
20987;BME280;10652;50.306;8.570;2023-04-20T16:04:16;97755.41;;;6.26;93.38
20987;BME280;10652;50.306;8.570;2023-04-20T16:08:19;97762.59;;;6.18;93.23
20987;BME280;10652;50.306;8.570;2023-04-20T16:12:22;97766.34;;;6.11;93.04
20987;BME280;10652;50.306;8.570;2023-04-20T16:16:24;97774.38;;;6.04;92.75
20987;BME280;10652;50.306;8.570;2023-04-20T16:20:26;97764.03;;;6.01;92.90
20987;BME280;10652;50.306;8.570;2023-04-20T16:24:28;97776.19;;;6.02;92.21
20987;BME280;10652;50.306;8.570;2023-04-20T16:28:30;97783.03;;;6.05;92.20
20987;BME280;10652;50.306;8.570;2023-04-20T16:32:32;97784.94;;;6.00;91.99
20987;BME280;10652;50.306;8.570;2023-04-20T16:36:35;97786.03;;;5.94;92.11
20987;BME280;10652;50.306;8.570;2023-04-20T16:40:37;97780.00;;;5.92;92.11
20987;BME280;10652;50.306;8.570;2023-04-20T16:44:39;97775.81;;;5.87;92.55
20987;BME280;10652;50.306;8.570;2023-04-20T16:48:42;97783.72;;;5.85;93.29
20987;BME280;10652;50.306;8.570;2023-04-20T16:52:45;97777.66;;;5.85;94.07
20987;BME280;10652;50.306;8.570;2023-04-20T16:56:47;97772.31;;;5.88;94.47
20987;BME280;10652;50.306;8.570;2023-04-20T17:00:49;97764.53;;;5.86;94.31
20987;BME280;10652;50.306;8.570;2023-04-20T17:04:52;97748.13;;;5.84;94.11
20987;BME280;10652;50.306;8.570;2023-04-20T17:08:54;97752.13;;;5.94;98.39
20987;BME280;10652;50.306;8.570;2023-04-20T17:12:58;97748.59;;;5.95;95.66
20987;BME280;10652;50.306;8.570;2023-04-20T17:17:00;97754.22;;;5.83;96.39
20987;BME280;10652;50.306;8.570;2023-04-20T17:21:03;97750.91;;;5.78;97.85
20987;BME280;10652;50.306;8.570;2023-04-20T17:25:05;97754.41;;;5.77;98.81
20987;BME280;10652;50.306;8.570;2023-04-20T17:29:08;97751.88;;;5.76;100.00
20987;BME280;10652;50.306;8.570;2023-04-20T17:33:10;97746.75;;;5.73;100.00
20987;BME280;10652;50.306;8.570;2023-04-20T17:37:16;97760.03;;;5.65;100.00
20987;BME280;10652;50.306;8.570;2023-04-20T17:41:18;97755.22;;;5.53;100.00
20987;BME280;10652;50.306;8.570;2023-04-20T17:45:21;97751.91;;;5.48;100.00
20987;BME280;10652;50.306;8.570;2023-04-20T17:49:23;97756.28;;;5.46;100.00
20987;BME280;10652;50.306;8.570;2023-04-20T17:53:25;97752.97;;;5.41;100.00
20987;BME280;10652;50.306;8.570;2023-04-20T17:57:27;97759.19;;;5.37;100.00
20987;BME280;10652;50.306;8.570;2023-04-20T18:01:29;97738.56;;;5.31;100.00
20987;BME280;10652;50.306;8.570;2023-04-20T18:05:35;97745.72;;;5.23;100.00
20987;BME280;10652;50.306;8.570;2023-04-20T18:09:38;97751.16;;;5.17;100.00
20987;BME280;10652;50.306;8.570;2023-04-20T18:13:40;97759.09;;;5.12;100.00
20987;BME280;10652;50.306;8.570;2023-04-20T18:17:42;97776.44;;;5.13;100.00
20987;BME280;10652;50.306;8.570;2023-04-20T18:21:45;97769.59;;;5.09;100.00
20987;BME280;10652;50.306;8.570;2023-04-20T18:25:47;97772.16;;;5.10;100.00
20987;BME280;10652;50.306;8.570;2023-04-20T18:29:49;97768.78;;;5.07;100.00
20987;BME280;10652;50.306;8.570;2023-04-20T18:33:51;97767.13;;;5.04;100.00
20987;BME280;10652;50.306;8.570;2023-04-20T18:37:53;97756.78;;;5.03;100.00
20987;BME280;10652;50.306;8.570;2023-04-20T18:41:56;97757.06;;;4.92;100.00
20987;BME280;10652;50.306;8.570;2023-04-20T18:45:58;97753.94;;;4.81;100.00
20987;BME280;10652;50.306;8.570;2023-04-20T18:50:00;97767.25;;;4.70;100.00
20987;BME280;10652;50.306;8.570;2023-04-20T18:54:02;97784.13;;;4.56;100.00
20987;BME280;10652;50.306;8.570;2023-04-20T18:58:04;97808.53;;;4.52;100.00
20987;BME280;10652;50.306;8.570;2023-04-20T19:02:06;97809.41;;;4.51;100.00
20987;BME280;10652;50.306;8.570;2023-04-20T19:06:11;97811.13;;;4.52;100.00
20987;BME280;10652;50.306;8.570;2023-04-20T19:10:13;97803.47;;;4.46;100.00
20987;BME280;10652;50.306;8.570;2023-04-20T19:14:15;97810.28;;;4.50;100.00
20987;BME280;10652;50.306;8.570;2023-04-20T19:18:17;97806.19;;;4.41;100.00
20987;BME280;10652;50.306;8.570;2023-04-20T19:22:19;97812.06;;;4.49;100.00
20987;BME280;10652;50.306;8.570;2023-04-20T19:26:21;97793.16;;;4.43;100.00
20987;BME280;10652;50.306;8.570;2023-04-20T19:30:24;97796.78;;;4.37;100.00
20987;BME280;10652;50.306;8.570;2023-04-20T19:34:27;97796.88;;;4.33;100.00
20987;BME280;10652;50.306;8.570;2023-04-20T19:38:29;97794.50;;;4.25;100.00
20987;BME280;10652;50.306;8.570;2023-04-20T19:42:32;97797.22;;;4.20;100.00
20987;BME280;10652;50.306;8.570;2023-04-20T19:46:34;97803.31;;;4.19;100.00
20987;BME280;10652;50.306;8.570;2023-04-20T19:50:37;97798.97;;;4.20;100.00
20987;BME280;10652;50.306;8.570;2023-04-20T19:54:39;97796.03;;;4.32;100.00
20987;BME280;10652;50.306;8.570;2023-04-20T19:58:41;97787.88;;;4.46;100.00
20987;BME280;10652;50.306;8.570;2023-04-20T20:02:43;97791.91;;;4.57;100.00
20987;BME280;10652;50.306;8.570;2023-04-20T20:06:45;97790.63;;;4.72;100.00
20987;BME280;10652;50.306;8.570;2023-04-20T20:10:50;97798.59;;;4.66;100.00
20987;BME280;10652;50.306;8.570;2023-04-20T20:14:52;97796.66;;;4.72;100.00
20987;BME280;10652;50.306;8.570;2023-04-20T20:18:54;97793.78;;;4.83;100.00
20987;BME280;10652;50.306;8.570;2023-04-20T20:23:00;97793.50;;;4.92;100.00
20987;BME280;10652;50.306;8.570;2023-04-20T20:27:03;97788.94;;;5.00;100.00
20987;BME280;10652;50.306;8.570;2023-04-20T20:31:05;97779.25;;;5.05;100.00
20987;BME280;10652;50.306;8.570;2023-04-20T20:35:08;97781.56;;;5.14;100.00
20987;BME280;10652;50.306;8.570;2023-04-20T20:39:12;97784.66;;;5.27;100.00
20987;BME280;10652;50.306;8.570;2023-04-20T20:43:14;97775.66;;;5.37;100.00
20987;BME280;10652;50.306;8.570;2023-04-20T20:47:18;97771.22;;;5.41;100.00
20987;BME280;10652;50.306;8.570;2023-04-20T20:51:20;97760.88;;;5.39;100.00
20987;BME280;10652;50.306;8.570;2023-04-20T20:55:22;97761.91;;;5.34;100.00
20987;BME280;10652;50.306;8.570;2023-04-20T20:59:24;97760.19;;;5.33;100.00
20987;BME280;10652;50.306;8.570;2023-04-20T21:03:26;97748.88;;;5.34;100.00
20987;BME280;10652;50.306;8.570;2023-04-20T21:07:28;97753.09;;;5.38;100.00
20987;BME280;10652;50.306;8.570;2023-04-20T21:11:31;97752.19;;;5.39;100.00
20987;BME280;10652;50.306;8.570;2023-04-20T21:15:33;97747.13;;;5.34;100.00
20987;BME280;10652;50.306;8.570;2023-04-20T21:19:35;97742.44;;;5.18;100.00
20987;BME280;10652;50.306;8.570;2023-04-20T21:23:37;97733.22;;;5.07;100.00
20987;BME280;10652;50.306;8.570;2023-04-20T21:27:39;97751.31;;;5.10;100.00
20987;BME280;10652;50.306;8.570;2023-04-20T21:31:41;97745.66;;;5.26;100.00
20987;BME280;10652;50.306;8.570;2023-04-20T21:35:43;97733.28;;;5.32;100.00